RYR4263 LGSK-LROP
Flight info
| Callsign | RYR4263 |
|---|---|
| Flight time | 1h 9m |
| Altitude | 36000 |
| Route | TSL UM987 ATFIR/N0457F350 M987 SOMOV/N0344F100 Z937 SORDU |
| Aircraft | B738/M-SDE2E3FGHIRWXY/LB1 |
Departure
| Time | 2026-04-20 13:19 |
|---|---|
| Airport | Skiathos Island National Airport (LGSK) |
Arrival
| Time | 2026-04-20 14:29 |
|---|---|
| Airport | Bucharest Henri Coandă International Airport (LROP) |
| Time | Latitude | Longitude | Altitude | Speed | Heading |
|---|---|---|---|---|---|
| 2026-04-20 12:59 | 39.17954 | 23.50252 | 66 ft | 0 kts | 290° |
| 2026-04-20 13:11 | 39.17954 | 23.50254 | 66 ft | 2 kts | 290° |
| 2026-04-20 13:11 | 39.17948 | 23.50274 | 59 ft | 2 kts | 290° |
| 2026-04-20 13:11 | 39.17942 | 23.50294 | 61 ft | 2 kts | 291° |
| 2026-04-20 13:12 | 39.17935 | 23.50313 | 59 ft | 2 kts | 320° |
| 2026-04-20 13:12 | 39.17923 | 23.50320 | 63 ft | 1 kts | 17° |
| 2026-04-20 13:12 | 39.17919 | 23.50318 | 58 ft | 0 kts | 22° |
| 2026-04-20 13:15 | 39.17922 | 23.50320 | 58 ft | 2 kts | 25° |
| 2026-04-20 13:15 | 39.17933 | 23.50336 | 60 ft | 3 kts | 60° |
| 2026-04-20 13:15 | 39.17940 | 23.50363 | 65 ft | 4 kts | 72° |
| 2026-04-20 13:15 | 39.17949 | 23.50402 | 69 ft | 5 kts | 74° |
| 2026-04-20 13:16 | 39.17971 | 23.50468 | 62 ft | 11 kts | 53° |
| 2026-04-20 13:16 | 39.18057 | 23.50521 | 67 ft | 17 kts | 19° |
| 2026-04-20 13:16 | 39.18180 | 23.50575 | 69 ft | 20 kts | 19° |
| 2026-04-20 13:16 | 39.18315 | 23.50635 | 66 ft | 21 kts | 19° |
| 2026-04-20 13:17 | 39.18457 | 23.50675 | 69 ft | 21 kts | 352° |
| 2026-04-20 13:17 | 39.18518 | 23.50714 | 74 ft | 0 kts | 73° |
| 2026-04-20 13:17 | 39.18513 | 23.50732 | 74 ft | 3 kts | 126° |
| 2026-04-20 13:17 | 39.18469 | 23.50735 | 74 ft | 7 kts | 203° |
| 2026-04-20 13:18 | 39.18411 | 23.50678 | 73 ft | 7 kts | 202° |
| 2026-04-20 13:18 | 39.18389 | 23.50668 | 70 ft | 0 kts | 199° |
| 2026-04-20 13:18 | 39.18380 | 23.50664 | 73 ft | 3 kts | 199° |
| 2026-04-20 13:18 | 39.18344 | 23.50648 | 67 ft | 18 kts | 199° |
| 2026-04-20 13:19 | 39.17911 | 23.50456 | 68 ft | 111 kts | 199° |
| 2026-04-20 13:19 | 39.16933 | 23.50029 | 110 ft | 182 kts | 198° |
| 2026-04-20 13:19 | 39.15604 | 23.49449 | 842 ft | 207 kts | 198° |
| 2026-04-20 13:19 | 39.14203 | 23.48925 | 1946 ft | 202 kts | 196° |
| 2026-04-20 13:20 | 39.12765 | 23.48450 | 2629 ft | 224 kts | 195° |
| 2026-04-20 13:20 | 39.11207 | 23.47950 | 3165 ft | 237 kts | 195° |
| 2026-04-20 13:20 | 39.09548 | 23.47427 | 3606 ft | 257 kts | 195° |
| 2026-04-20 13:20 | 39.07766 | 23.46873 | 4388 ft | 263 kts | 195° |
| 2026-04-20 13:21 | 39.05984 | 23.46322 | 5286 ft | 265 kts | 198° |
| 2026-04-20 13:21 | 39.04381 | 23.45265 | 6104 ft | 263 kts | 227° |
| 2026-04-20 13:21 | 39.03534 | 23.43242 | 6973 ft | 260 kts | 261° |
| 2026-04-20 13:21 | 39.03747 | 23.40921 | 7757 ft | 265 kts | 294° |
| 2026-04-20 13:22 | 39.04945 | 23.39154 | 8545 ft | 273 kts | 324° |
| 2026-04-20 13:22 | 39.06604 | 23.37940 | 9396 ft | 277 kts | 330° |
| 2026-04-20 13:22 | 39.08444 | 23.37049 | 10133 ft | 286 kts | 348° |
| 2026-04-20 13:22 | 39.10507 | 23.37071 | 10486 ft | 310 kts | 4° |
| 2026-04-20 13:23 | 39.12724 | 23.37525 | 10668 ft | 335 kts | 7° |
| 2026-04-20 13:23 | 39.15090 | 23.38096 | 10850 ft | 358 kts | 8° |
| 2026-04-20 13:23 | 39.17589 | 23.38680 | 11228 ft | 371 kts | 7° |
| 2026-04-20 13:23 | 39.20153 | 23.39225 | 11886 ft | 375 kts | 6° |
| 2026-04-20 13:24 | 39.22725 | 23.39694 | 12662 ft | 375 kts | 4° |
| 2026-04-20 13:24 | 39.25326 | 23.40077 | 13403 ft | 378 kts | 3° |
| 2026-04-20 13:24 | 39.27953 | 23.40442 | 14070 ft | 381 kts | 3° |
| 2026-04-20 13:24 | 39.30616 | 23.40826 | 14717 ft | 384 kts | 3° |
| 2026-04-20 13:25 | 39.33262 | 23.41227 | 15362 ft | 387 kts | 4° |
| 2026-04-20 13:25 | 39.35969 | 23.41657 | 15983 ft | 390 kts | 4° |
| 2026-04-20 13:25 | 39.38665 | 23.42099 | 16594 ft | 393 kts | 4° |
| 2026-04-20 13:25 | 39.41384 | 23.42554 | 17205 ft | 396 kts | 4° |
| 2026-04-20 13:26 | 39.44119 | 23.43017 | 17803 ft | 399 kts | 4° |
| 2026-04-20 13:26 | 39.46873 | 23.43486 | 18362 ft | 403 kts | 4° |
| 2026-04-20 13:26 | 39.49685 | 23.43967 | 18868 ft | 405 kts | 4° |
| 2026-04-20 13:26 | 39.52477 | 23.44445 | 19385 ft | 408 kts | 4° |
| 2026-04-20 13:27 | 39.55279 | 23.44926 | 19896 ft | 410 kts | 4° |
| 2026-04-20 13:27 | 39.58114 | 23.45412 | 20388 ft | 413 kts | 4° |
| 2026-04-20 13:27 | 39.60992 | 23.45906 | 20873 ft | 416 kts | 4° |
| 2026-04-20 13:27 | 39.63856 | 23.46398 | 21348 ft | 418 kts | 4° |
| 2026-04-20 13:28 | 39.66753 | 23.46896 | 21815 ft | 421 kts | 4° |
| 2026-04-20 13:28 | 39.69666 | 23.47397 | 22267 ft | 424 kts | 5° |
| 2026-04-20 13:28 | 39.72600 | 23.47902 | 22713 ft | 426 kts | 5° |
| 2026-04-20 13:28 | 39.75550 | 23.48410 | 23149 ft | 429 kts | 5° |
| 2026-04-20 13:29 | 39.78525 | 23.48923 | 23566 ft | 432 kts | 5° |
| 2026-04-20 13:29 | 39.81504 | 23.49437 | 23923 ft | 434 kts | 5° |
| 2026-04-20 13:29 | 39.84510 | 23.49957 | 24294 ft | 435 kts | 5° |
| 2026-04-20 13:29 | 39.87516 | 23.50477 | 24657 ft | 437 kts | 5° |
| 2026-04-20 13:30 | 39.90530 | 23.50999 | 25007 ft | 439 kts | 5° |
| 2026-04-20 13:30 | 39.93580 | 23.51527 | 25346 ft | 441 kts | 5° |
| 2026-04-20 13:30 | 39.96623 | 23.52054 | 25679 ft | 443 kts | 5° |
| 2026-04-20 13:30 | 39.99681 | 23.52585 | 26023 ft | 445 kts | 5° |
| 2026-04-20 13:31 | 40.02771 | 23.53122 | 26333 ft | 447 kts | 5° |
| 2026-04-20 13:31 | 40.05865 | 23.53659 | 26635 ft | 449 kts | 5° |
| 2026-04-20 13:31 | 40.08964 | 23.54198 | 26936 ft | 451 kts | 4° |
| 2026-04-20 13:31 | 40.12072 | 23.54739 | 27233 ft | 452 kts | 5° |
| 2026-04-20 13:32 | 40.15201 | 23.55285 | 27513 ft | 454 kts | 5° |
| 2026-04-20 13:32 | 40.18330 | 23.55830 | 27822 ft | 455 kts | 5° |
| 2026-04-20 13:32 | 40.21472 | 23.56380 | 28242 ft | 453 kts | 5° |
| 2026-04-20 13:32 | 40.24592 | 23.56926 | 28724 ft | 451 kts | 4° |
| 2026-04-20 13:33 | 40.27703 | 23.57471 | 29191 ft | 449 kts | 4° |
| 2026-04-20 13:33 | 40.30786 | 23.58011 | 29602 ft | 448 kts | 4° |
| 2026-04-20 13:33 | 40.33861 | 23.58550 | 29997 ft | 447 kts | 4° |
| 2026-04-20 13:33 | 40.36953 | 23.59092 | 30346 ft | 446 kts | 4° |
| 2026-04-20 13:34 | 40.39014 | 23.59454 | 30582 ft | 445 kts | 4° |
| 2026-04-20 13:34 | 40.43090 | 23.60170 | 31017 ft | 444 kts | 4° |
| 2026-04-20 13:34 | 40.46143 | 23.60707 | 31352 ft | 443 kts | 4° |
| 2026-04-20 13:34 | 40.49195 | 23.61245 | 31707 ft | 441 kts | 4° |
| 2026-04-20 13:35 | 40.52238 | 23.61781 | 32036 ft | 440 kts | 4° |
| 2026-04-20 13:35 | 40.55272 | 23.62316 | 32353 ft | 440 kts | 4° |
| 2026-04-20 13:35 | 40.58286 | 23.62848 | 32682 ft | 438 kts | 4° |
| 2026-04-20 13:35 | 40.60315 | 23.63207 | 32910 ft | 438 kts | 4° |
| 2026-04-20 13:36 | 40.64323 | 23.63916 | 33330 ft | 436 kts | 4° |
| 2026-04-20 13:36 | 40.67327 | 23.64447 | 33660 ft | 435 kts | 4° |
| 2026-04-20 13:36 | 40.70313 | 23.64976 | 33949 ft | 435 kts | 4° |
| 2026-04-20 13:36 | 40.72333 | 23.65335 | 34101 ft | 434 kts | 4° |
| 2026-04-20 13:37 | 40.75290 | 23.65859 | 34310 ft | 435 kts | 4° |
| 2026-04-20 13:37 | 40.78323 | 23.66398 | 34488 ft | 435 kts | 4° |
| 2026-04-20 13:37 | 40.81326 | 23.66931 | 34666 ft | 436 kts | 4° |
| 2026-04-20 13:37 | 40.84356 | 23.67470 | 34874 ft | 436 kts | 4° |
| 2026-04-20 13:38 | 40.87364 | 23.68006 | 35083 ft | 436 kts | 4° |
| 2026-04-20 13:38 | 40.90383 | 23.68544 | 35272 ft | 437 kts | 4° |
| 2026-04-20 13:38 | 40.93371 | 23.69077 | 35446 ft | 438 kts | 4° |
| 2026-04-20 13:38 | 40.96403 | 23.69619 | 35641 ft | 438 kts | 4° |
| 2026-04-20 13:39 | 40.99422 | 23.70159 | 35825 ft | 438 kts | 4° |
| 2026-04-20 13:39 | 41.02446 | 23.70700 | 35934 ft | 440 kts | 4° |
| 2026-04-20 13:39 | 41.05477 | 23.71242 | 35932 ft | 442 kts | 4° |
| 2026-04-20 13:40 | 41.11555 | 23.72335 | 35925 ft | 439 kts | 4° |
| 2026-04-20 13:40 | 41.17625 | 23.73442 | 35931 ft | 436 kts | 4° |
| 2026-04-20 13:41 | 41.23602 | 23.74521 | 35933 ft | 434 kts | 4° |
| 2026-04-20 13:41 | 41.29608 | 23.75597 | 35930 ft | 434 kts | 4° |
| 2026-04-20 13:42 | 41.35567 | 23.76666 | 35942 ft | 434 kts | 4° |
| 2026-04-20 13:42 | 41.44528 | 23.78804 | 35934 ft | 440 kts | 11° |
| 2026-04-20 13:43 | 41.50390 | 23.81308 | 35935 ft | 444 kts | 16° |
| 2026-04-20 13:43 | 41.56139 | 23.84285 | 35936 ft | 446 kts | 17° |
| 2026-04-20 13:44 | 41.61969 | 23.87232 | 35941 ft | 447 kts | 16° |
| 2026-04-20 13:44 | 41.67824 | 23.89992 | 35939 ft | 447 kts | 15° |
| 2026-04-20 13:45 | 41.73750 | 23.92695 | 35937 ft | 449 kts | 14° |
| 2026-04-20 13:45 | 41.79666 | 23.95379 | 35931 ft | 449 kts | 14° |
| 2026-04-20 13:46 | 41.85590 | 23.98077 | 35927 ft | 449 kts | 14° |
| 2026-04-20 13:46 | 41.91500 | 24.00778 | 35937 ft | 449 kts | 14° |
| 2026-04-20 13:47 | 41.97429 | 24.03494 | 35934 ft | 449 kts | 14° |
| 2026-04-20 13:47 | 42.03341 | 24.06208 | 35920 ft | 448 kts | 14° |
| 2026-04-20 13:48 | 42.09221 | 24.08913 | 35919 ft | 449 kts | 15° |
| 2026-04-20 13:48 | 42.15160 | 24.11650 | 35933 ft | 447 kts | 15° |
| 2026-04-20 13:49 | 42.21013 | 24.14353 | 35911 ft | 447 kts | 15° |
| 2026-04-20 13:49 | 42.26894 | 24.17074 | 35916 ft | 446 kts | 14° |
| 2026-04-20 13:50 | 42.32777 | 24.19801 | 35914 ft | 446 kts | 15° |
| 2026-04-20 13:50 | 42.38641 | 24.22524 | 35919 ft | 446 kts | 15° |
| 2026-04-20 13:51 | 42.44514 | 24.25257 | 35924 ft | 447 kts | 15° |
| 2026-04-20 13:51 | 42.50395 | 24.28000 | 35931 ft | 448 kts | 15° |
| 2026-04-20 13:52 | 42.56333 | 24.30774 | 35924 ft | 449 kts | 15° |
| 2026-04-20 13:52 | 42.62220 | 24.33530 | 35933 ft | 450 kts | 15° |
| 2026-04-20 13:53 | 42.68192 | 24.36331 | 35940 ft | 451 kts | 15° |
| 2026-04-20 13:53 | 42.74114 | 24.39115 | 35937 ft | 453 kts | 15° |
| 2026-04-20 13:54 | 42.80100 | 24.41936 | 35941 ft | 453 kts | 15° |
| 2026-04-20 13:54 | 42.86069 | 24.44752 | 35933 ft | 454 kts | 15° |
| 2026-04-20 13:55 | 42.92017 | 24.47567 | 35943 ft | 454 kts | 15° |
| 2026-04-20 13:55 | 42.98007 | 24.50407 | 35946 ft | 455 kts | 15° |
| 2026-04-20 13:56 | 43.04038 | 24.53272 | 35939 ft | 455 kts | 15° |
| 2026-04-20 13:56 | 43.10011 | 24.56115 | 35936 ft | 455 kts | 15° |
| 2026-04-20 13:57 | 43.15974 | 24.58959 | 35936 ft | 455 kts | 15° |
| 2026-04-20 13:57 | 43.21953 | 24.61816 | 35934 ft | 454 kts | 15° |
| 2026-04-20 13:58 | 43.27900 | 24.64665 | 35929 ft | 454 kts | 15° |
| 2026-04-20 13:58 | 43.33869 | 24.67529 | 35928 ft | 454 kts | 15° |
| 2026-04-20 13:59 | 43.39851 | 24.70406 | 35927 ft | 454 kts | 15° |
| 2026-04-20 13:59 | 43.45804 | 24.73275 | 35928 ft | 454 kts | 15° |
| 2026-04-20 14:00 | 43.51793 | 24.76167 | 35921 ft | 454 kts | 15° |
| 2026-04-20 14:00 | 43.57732 | 24.79042 | 35921 ft | 455 kts | 15° |
| 2026-04-20 14:01 | 43.63730 | 24.81949 | 35560 ft | 460 kts | 15° |
| 2026-04-20 14:01 | 43.66758 | 24.83477 | 35313 ft | 459 kts | 17° |
| 2026-04-20 14:01 | 43.69639 | 24.85419 | 34672 ft | 467 kts | 29° |
| 2026-04-20 14:02 | 43.72099 | 24.88310 | 34123 ft | 474 kts | 43° |
| 2026-04-20 14:02 | 43.74129 | 24.91974 | 33350 ft | 482 kts | 52° |
| 2026-04-20 14:02 | 43.75992 | 24.95876 | 32595 ft | 482 kts | 52° |
| 2026-04-20 14:02 | 43.77920 | 24.99671 | 31851 ft | 481 kts | 49° |
| 2026-04-20 14:03 | 43.80037 | 25.03261 | 31121 ft | 480 kts | 45° |
| 2026-04-20 14:03 | 43.82209 | 25.06698 | 30379 ft | 481 kts | 45° |
| 2026-04-20 14:03 | 43.84427 | 25.10219 | 29540 ft | 482 kts | 46° |
| 2026-04-20 14:03 | 43.86588 | 25.13759 | 28630 ft | 484 kts | 47° |
| 2026-04-20 14:04 | 43.88719 | 25.17373 | 27978 ft | 480 kts | 48° |
| 2026-04-20 14:04 | 43.90796 | 25.20979 | 27346 ft | 476 kts | 49° |
| 2026-04-20 14:04 | 43.92839 | 25.24567 | 26759 ft | 471 kts | 49° |
| 2026-04-20 14:04 | 43.94859 | 25.28123 | 26166 ft | 467 kts | 49° |
| 2026-04-20 14:05 | 43.96867 | 25.31653 | 25584 ft | 463 kts | 49° |
| 2026-04-20 14:05 | 43.98862 | 25.35154 | 25010 ft | 459 kts | 49° |
| 2026-04-20 14:05 | 44.00829 | 25.38603 | 24443 ft | 456 kts | 49° |
| 2026-04-20 14:05 | 44.02788 | 25.42039 | 23876 ft | 453 kts | 49° |
| 2026-04-20 14:06 | 44.04711 | 25.45527 | 23245 ft | 452 kts | 52° |
| 2026-04-20 14:06 | 44.06357 | 25.49260 | 22562 ft | 452 kts | 63° |
| 2026-04-20 14:06 | 44.07414 | 25.53354 | 22021 ft | 448 kts | 73° |
| 2026-04-20 14:06 | 44.08195 | 25.57482 | 21437 ft | 444 kts | 74° |
| 2026-04-20 14:07 | 44.09095 | 25.61553 | 20896 ft | 439 kts | 68° |
| 2026-04-20 14:07 | 44.10328 | 25.65517 | 20311 ft | 434 kts | 62° |
| 2026-04-20 14:07 | 44.11667 | 25.69278 | 19775 ft | 430 kts | 61° |
| 2026-04-20 14:07 | 44.12979 | 25.72981 | 19229 ft | 427 kts | 62° |
| 2026-04-20 14:08 | 44.14217 | 25.76685 | 18712 ft | 424 kts | 64° |
| 2026-04-20 14:08 | 44.15405 | 25.80481 | 18150 ft | 421 kts | 65° |
| 2026-04-20 14:08 | 44.16154 | 25.82962 | 17745 ft | 419 kts | 65° |
| 2026-04-20 14:08 | 44.17270 | 25.86679 | 17149 ft | 416 kts | 65° |
| 2026-04-20 14:09 | 44.18397 | 25.90408 | 16596 ft | 412 kts | 65° |
| 2026-04-20 14:09 | 44.19436 | 25.94107 | 16045 ft | 408 kts | 69° |
| 2026-04-20 14:09 | 44.20327 | 25.97842 | 15519 ft | 406 kts | 72° |
| 2026-04-20 14:09 | 44.21072 | 26.01585 | 14983 ft | 403 kts | 75° |
| 2026-04-20 14:10 | 44.21717 | 26.05370 | 14473 ft | 400 kts | 76° |
| 2026-04-20 14:10 | 44.22365 | 26.09110 | 13950 ft | 397 kts | 75° |
| 2026-04-20 14:10 | 44.23083 | 26.12875 | 13404 ft | 395 kts | 73° |
| 2026-04-20 14:10 | 44.23835 | 26.16531 | 12834 ft | 392 kts | 72° |
| 2026-04-20 14:11 | 44.24606 | 26.20166 | 12298 ft | 389 kts | 71° |
| 2026-04-20 14:11 | 44.25542 | 26.23661 | 11766 ft | 385 kts | 64° |
| 2026-04-20 14:11 | 44.27036 | 26.26689 | 11248 ft | 376 kts | 38° |
| 2026-04-20 14:11 | 44.29266 | 26.28431 | 11093 ft | 355 kts | 17° |
| 2026-04-20 14:12 | 44.31547 | 26.29610 | 10916 ft | 345 kts | 18° |
| 2026-04-20 14:12 | 44.33600 | 26.31205 | 10723 ft | 341 kts | 34° |
| 2026-04-20 14:12 | 44.35364 | 26.33314 | 10705 ft | 329 kts | 38° |
| 2026-04-20 14:12 | 44.37126 | 26.35311 | 10605 ft | 313 kts | 31° |
| 2026-04-20 14:13 | 44.38875 | 26.36910 | 10480 ft | 296 kts | 27° |
| 2026-04-20 14:13 | 44.40601 | 26.38452 | 10359 ft | 283 kts | 28° |
| 2026-04-20 14:13 | 44.42209 | 26.39959 | 10269 ft | 280 kts | 30° |
| 2026-04-20 14:13 | 44.43818 | 26.41514 | 10173 ft | 281 kts | 30° |
| 2026-04-20 14:14 | 44.45372 | 26.43226 | 10052 ft | 288 kts | 44° |
| 2026-04-20 14:14 | 44.46255 | 26.45665 | 9965 ft | 281 kts | 81° |
| 2026-04-20 14:14 | 44.46317 | 26.48329 | 9903 ft | 266 kts | 91° |
| 2026-04-20 14:14 | 44.46345 | 26.50860 | 9807 ft | 254 kts | 86° |
| 2026-04-20 14:15 | 44.46505 | 26.53256 | 9676 ft | 243 kts | 83° |
| 2026-04-20 14:15 | 44.46694 | 26.55600 | 9368 ft | 240 kts | 83° |
| 2026-04-20 14:15 | 44.46876 | 26.57888 | 9199 ft | 230 kts | 83° |
| 2026-04-20 14:15 | 44.47039 | 26.60052 | 9005 ft | 222 kts | 84° |
| 2026-04-20 14:16 | 44.47196 | 26.62193 | 8689 ft | 221 kts | 84° |
| 2026-04-20 14:16 | 44.47451 | 26.64288 | 8361 ft | 218 kts | 64° |
| 2026-04-20 14:16 | 44.48397 | 26.65787 | 8160 ft | 198 kts | 21° |
| 2026-04-20 14:16 | 44.49685 | 26.66282 | 8063 ft | 190 kts | 359° |
| 2026-04-20 14:17 | 44.51002 | 26.66232 | 7791 ft | 185 kts | 347° |
| 2026-04-20 14:17 | 44.52262 | 26.66040 | 7619 ft | 179 kts | 347° |
| 2026-04-20 14:17 | 44.53471 | 26.65866 | 7410 ft | 170 kts | 347° |
| 2026-04-20 14:17 | 44.54629 | 26.65704 | 7255 ft | 166 kts | 347° |
| 2026-04-20 14:18 | 44.55773 | 26.65542 | 7094 ft | 167 kts | 347° |
| 2026-04-20 14:18 | 44.56926 | 26.65381 | 6914 ft | 167 kts | 347° |
| 2026-04-20 14:18 | 44.58071 | 26.65222 | 6763 ft | 166 kts | 347° |
| 2026-04-20 14:18 | 44.59239 | 26.65054 | 6585 ft | 166 kts | 346° |
| 2026-04-20 14:19 | 44.60267 | 26.64499 | 6378 ft | 155 kts | 311° |
| 2026-04-20 14:19 | 44.60571 | 26.63219 | 6276 ft | 139 kts | 261° |
| 2026-04-20 14:19 | 44.60393 | 26.61844 | 6142 ft | 148 kts | 263° |
| 2026-04-20 14:19 | 44.60295 | 26.60404 | 5965 ft | 148 kts | 265° |
| 2026-04-20 14:20 | 44.60203 | 26.58920 | 5460 ft | 157 kts | 265° |
| 2026-04-20 14:20 | 44.60103 | 26.57370 | 4933 ft | 166 kts | 264° |
| 2026-04-20 14:20 | 44.59991 | 26.55707 | 4457 ft | 175 kts | 264° |
| 2026-04-20 14:20 | 44.59872 | 26.53972 | 4063 ft | 178 kts | 264° |
| 2026-04-20 14:21 | 44.59818 | 26.52245 | 3718 ft | 176 kts | 270° |
| 2026-04-20 14:21 | 44.59872 | 26.50528 | 3357 ft | 175 kts | 271° |
| 2026-04-20 14:21 | 44.59925 | 26.48835 | 2990 ft | 173 kts | 271° |
| 2026-04-20 14:21 | 44.59972 | 26.47201 | 2685 ft | 161 kts | 272° |
| 2026-04-20 14:22 | 44.60012 | 26.45719 | 2522 ft | 139 kts | 271° |
| 2026-04-20 14:22 | 44.60046 | 26.44417 | 2529 ft | 135 kts | 271° |
| 2026-04-20 14:22 | 44.60080 | 26.43076 | 2511 ft | 135 kts | 271° |
| 2026-04-20 14:22 | 44.60112 | 26.41781 | 2499 ft | 132 kts | 271° |
| 2026-04-20 14:23 | 44.60067 | 26.40524 | 2499 ft | 130 kts | 264° |
| 2026-04-20 14:23 | 44.59972 | 26.39252 | 2511 ft | 130 kts | 264° |
| 2026-04-20 14:23 | 44.59876 | 26.37992 | 2498 ft | 129 kts | 264° |
| 2026-04-20 14:23 | 44.59673 | 26.36731 | 2510 ft | 135 kts | 254° |
| 2026-04-20 14:24 | 44.59426 | 26.35492 | 2504 ft | 133 kts | 259° |
| 2026-04-20 14:24 | 44.59143 | 26.34247 | 2487 ft | 134 kts | 257° |
| 2026-04-20 14:24 | 44.59020 | 26.32969 | 2510 ft | 130 kts | 267° |
| 2026-04-20 14:24 | 44.59039 | 26.31703 | 2581 ft | 129 kts | 272° |
| 2026-04-20 14:25 | 44.59080 | 26.30438 | 2577 ft | 130 kts | 271° |
| 2026-04-20 14:25 | 44.59114 | 26.29155 | 2587 ft | 134 kts | 271° |
| 2026-04-20 14:25 | 44.59115 | 26.27832 | 2477 ft | 138 kts | 267° |
| 2026-04-20 14:25 | 44.59053 | 26.26529 | 2325 ft | 133 kts | 265° |
| 2026-04-20 14:26 | 44.58973 | 26.25240 | 2103 ft | 133 kts | 264° |
| 2026-04-20 14:26 | 44.58876 | 26.23955 | 1787 ft | 131 kts | 262° |
| 2026-04-20 14:26 | 44.58748 | 26.22740 | 1708 ft | 121 kts | 262° |
| 2026-04-20 14:26 | 44.58617 | 26.21515 | 1675 ft | 130 kts | 264° |
| 2026-04-20 14:27 | 44.58535 | 26.20263 | 1664 ft | 127 kts | 265° |
| 2026-04-20 14:27 | 44.58449 | 26.19029 | 1366 ft | 128 kts | 264° |
| 2026-04-20 14:27 | 44.58358 | 26.17801 | 1086 ft | 123 kts | 265° |
| 2026-04-20 14:27 | 44.58285 | 26.16591 | 947 ft | 128 kts | 265° |
| 2026-04-20 14:28 | 44.58195 | 26.15303 | 792 ft | 136 kts | 264° |
| 2026-04-20 14:28 | 44.58074 | 26.14020 | 601 ft | 129 kts | 264° |
| 2026-04-20 14:28 | 44.57990 | 26.12806 | 363 ft | 122 kts | 263° |
| 2026-04-20 14:28 | 44.57909 | 26.11712 | 323 ft | 96 kts | 265° |
| 2026-04-20 14:29 | 44.57845 | 26.10896 | 321 ft | 74 kts | 263° |
| 2026-04-20 14:29 | 44.57812 | 26.10420 | 320 ft | 34 kts | 264° |
| 2026-04-20 14:29 | 44.57788 | 26.10186 | 322 ft | 23 kts | 255° |
| 2026-04-20 14:29 | 44.57729 | 26.09986 | 322 ft | 22 kts | 232° |
| 2026-04-20 14:30 | 44.57638 | 26.09815 | 322 ft | 21 kts | 234° |
| 2026-04-20 14:30 | 44.57579 | 26.09629 | 320 ft | 21 kts | 261° |
| 2026-04-20 14:30 | 44.57563 | 26.09431 | 322 ft | 20 kts | 263° |
| 2026-04-20 14:30 | 44.57549 | 26.09236 | 322 ft | 20 kts | 263° |
| 2026-04-20 14:31 | 44.57534 | 26.09050 | 322 ft | 19 kts | 264° |
| 2026-04-20 14:31 | 44.57521 | 26.08870 | 322 ft | 18 kts | 264° |
| 2026-04-20 14:31 | 44.57508 | 26.08696 | 321 ft | 18 kts | 264° |
| 2026-04-20 14:31 | 44.57494 | 26.08526 | 320 ft | 17 kts | 254° |
| 2026-04-20 14:32 | 44.57423 | 26.08477 | 319 ft | 10 kts | 174° |
| 2026-04-20 14:32 | 44.57354 | 26.08487 | 322 ft | 10 kts | 174° |
| 2026-04-20 14:32 | 44.57287 | 26.08496 | 322 ft | 10 kts | 174° |
| 2026-04-20 14:32 | 44.57233 | 26.08463 | 320 ft | 9 kts | 254° |
| 2026-04-20 14:33 | 44.57225 | 26.08372 | 322 ft | 10 kts | 263° |
| 2026-04-20 14:33 | 44.57216 | 26.08267 | 322 ft | 11 kts | 264° |
| 2026-04-20 14:33 | 44.57207 | 26.08160 | 321 ft | 11 kts | 261° |
| 2026-04-20 14:33 | 44.57241 | 26.08103 | 322 ft | 7 kts | 352° |
| 2026-04-20 14:34 | 44.57266 | 26.08099 | 320 ft | 0 kts | 354° |